Time;durP1;ratioP1;P1;durP2;ratioP2;P2;SDS_P1;SDS_P2;PMS_P1;PMS_P2;Temp;Humidity;BMP_temperature;BMP_pressure;BME280_temperature;BME280_humidity;BME280_pressure;Samples;Min_cycle;Max_cycle;Signal;HPM_P1;HPM_P2
2023/03/27 00:02:14;;;;;;;4.03;2.60;;;;;;;;;;4194911;28;20047;-60
2023/03/27 00:04:34;;;;;;;2.83;2.63;;;;;;;;;;4196712;28;20334;-60
2023/03/27 00:06:54;;;;;;;6.45;3.35;;;;;;;;;;4191954;28;20155;-60
2023/03/27 00:09:16;;;;;;;4.60;2.60;;;;;;;;;;4192647;28;20052;-60
2023/03/27 00:11:36;;;;;;;8.38;6.05;;;;;;;;;;4194843;28;20048;-60
2023/03/27 00:13:56;;;;;;;6.75;3.55;;;;;;;;;;4191922;28;20044;-61
2023/03/27 00:16:17;;;;;;;5.10;3.55;;;;;;;;;;4191361;28;20059;-61
2023/03/27 00:18:38;;;;;;;5.10;2.80;;;;;;;;;;4192404;28;20036;-60
2023/03/27 00:20:59;;;;;;;6.75;4.70;;;;;;;;;;4193054;28;20105;-60
2023/03/27 00:23:19;;;;;;;12.30;4.35;;;;;;;;;;4191305;28;20048;-60
2023/03/27 00:25:41;;;;;;;8.13;4.18;;;;;;;;;;4193791;28;20080;-60
2023/03/27 00:28:01;;;;;;;6.63;1.80;;;;;;;;;;4191244;28;20044;-60
2023/03/27 00:30:22;;;;;;;5.18;2.35;;;;;;;;;;4191151;28;20091;-60
2023/03/27 00:32:42;;;;;;;4.15;3.17;;;;;;;;;;4190780;28;20082;-60
2023/03/27 00:35:03;;;;;;;5.45;3.20;;;;;;;;;;4191321;28;20187;-61
2023/03/27 00:37:23;;;;;;;5.93;3.85;;;;;;;;;;4191487;28;20367;-60
2023/03/27 00:39:48;;;;;;;6.53;3.63;;;;;;;;;;4192296;28;20143;-60
2023/03/27 00:42:12;;;;;;;7.63;3.13;;;;;;;;;;4191709;28;20043;-60
2023/03/27 00:44:33;;;;;;;6.47;2.95;;;;;;;;;;4191812;28;20086;-60
2023/03/27 00:46:55;;;;;;;9.55;4.13;;;;;;;;;;4192051;28;20052;-60
2023/03/27 00:49:16;;;;;;;6.45;3.47;;;;;;;;;;4191582;28;20048;-60
2023/03/27 00:51:37;;;;;;;5.60;3.13;;;;;;;;;;4190810;28;20067;-60
2023/03/27 00:53:58;;;;;;;5.50;2.80;;;;;;;;;;4192537;28;20147;-60
2023/03/27 00:56:18;;;;;;;4.93;2.55;;;;;;;;;;4192860;28;20375;-60
2023/03/27 00:58:50;;;;;;;8.95;3.53;;;;;;;;;;4189733;28;20108;-60
2023/03/27 01:01:12;;;;;;;7.18;3.22;;;;;;;;;;4192686;28;20042;-61
2023/03/27 01:03:33;;;;;;;9.15;3.70;;;;;;;;;;4192645;28;20051;-61
2023/03/27 01:05:54;;;;;;;13.82;4.47;;;;;;;;;;4191253;28;20059;-61
2023/03/27 01:08:15;;;;;;;11.80;4.40;;;;;;;;;;4192244;28;20044;-61
2023/03/27 01:10:41;;;;;;;8.27;3.67;;;;;;;;;;4192675;28;20083;-61
2023/03/27 01:13:01;;;;;;;9.23;4.45;;;;;;;;;;4190275;28;20040;-61
2023/03/27 01:15:22;;;;;;;11.20;4.15;;;;;;;;;;4190584;28;20083;-61
2023/03/27 01:17:52;;;;;;;8.98;3.38;;;;;;;;;;4191469;28;20087;-61
2023/03/27 01:20:31;;;;;;;15.27;3.38;;;;;;;;;;4189764;28;20095;-61
2023/03/27 01:23:10;;;;;;;11.60;2.95;;;;;;;;;;4192077;28;20043;-61
2023/03/27 01:25:49;;;;;;;9.80;4.53;;;;;;;;;;4191666;28;20044;-61
2023/03/27 01:28:28;;;;;;;15.73;3.63;;;;;;;;;;4190556;28;20132;-61
2023/03/27 01:30:49;;;;;;;8.23;3.42;;;;;;;;;;4192006;28;20039;-60
2023/03/27 01:33:09;;;;;;;8.85;3.20;;;;;;;;;;4192003;28;20275;-60
2023/03/27 01:35:42;;;;;;;8.40;3.70;;;;;;;;;;4192460;28;20330;-60
2023/03/27 01:38:14;;;;;;;10.35;4.05;;;;;;;;;;4190950;28;20040;-60
2023/03/27 01:40:38;;;;;;;6.65;2.80;;;;;;;;;;4191510;28;20055;-60
2023/03/27 01:43:07;;;;;;;9.13;3.42;;;;;;;;;;4191303;28;20081;-60
2023/03/27 01:45:34;;;;;;;7.45;3.35;;;;;;;;;;4191431;28;20383;-61
2023/03/27 01:48:00;;;;;;;5.50;3.25;;;;;;;;;;4188994;28;20043;-60
2023/03/27 01:50:29;;;;;;;5.93;4.32;;;;;;;;;;4190044;28;20044;-60
2023/03/27 01:52:55;;;;;;;6.80;3.42;;;;;;;;;;4190414;28;20401;-60
2023/03/27 01:55:18;;;;;;;10.02;2.92;;;;;;;;;;4190768;28;20086;-60
2023/03/27 01:57:40;;;;;;;10.48;3.40;;;;;;;;;;4191313;28;20055;-60
2023/03/27 02:00:16;;;;;;;9.40;3.92;;;;;;;;;;4190284;28;20052;-60
2023/03/27 02:02:39;;;;;;;9.68;3.13;;;;;;;;;;4190610;28;20091;-61
2023/03/27 02:05:00;;;;;;;7.22;3.42;;;;;;;;;;4189904;28;20044;-60
2023/03/27 02:07:24;;;;;;;6.88;3.22;;;;;;;;;;4188454;28;20075;-60
2023/03/27 02:09:48;;;;;;;9.15;3.05;;;;;;;;;;4190222;28;20063;-60
2023/03/27 02:12:11;;;;;;;5.57;3.15;;;;;;;;;;4191342;28;20237;-60
2023/03/27 02:14:31;;;;;;;;;;;;;;;;;;4190537;28;20044;-60
2023/03/27 02:16:57;;;;;;;7.50;2.33;;;;;;;;;;4190712;28;20154;-60
2023/03/27 02:19:22;;;;;;;6.75;2.53;;;;;;;;;;4191358;28;20159;-60
2023/03/27 02:21:42;;;;;;;14.73;5.28;;;;;;;;;;4204013;28;20255;-60
2023/03/27 02:24:04;;;;;;;7.85;3.33;;;;;;;;;;4189492;28;20095;-61
2023/03/27 02:26:24;;;;;;;4.93;2.95;;;;;;;;;;4190825;28;20048;-60
2023/03/27 02:29:04;;;;;;;9.13;3.45;;;;;;;;;;4192399;28;20083;-60
2023/03/27 02:31:37;;;;;;;9.18;3.35;;;;;;;;;;4190872;28;20052;-60
2023/03/27 02:34:16;;;;;;;9.05;2.80;;;;;;;;;;4189145;28;20128;-60
2023/03/27 02:36:45;;;;;;;10.57;4.60;;;;;;;;;;4191639;28;20386;-60
2023/03/27 02:39:22;;;;;;;7.95;3.25;;;;;;;;;;4190764;28;20055;-60
2023/03/27 02:41:45;;;;;;;9.15;2.83;;;;;;;;;;4189396;28;20043;-60
2023/03/27 02:44:15;;;;;;;7.80;2.88;;;;;;;;;;4190298;28;20055;-60
2023/03/27 02:46:44;;;;;;;16.15;3.03;;;;;;;;;;4191285;28;20259;-60
2023/03/27 02:49:09;;;;;;;6.95;3.30;;;;;;;;;;4191004;28;20039;-60
2023/03/27 02:51:41;;;;;;;7.78;3.53;;;;;;;;;;4189377;28;20358;-60
2023/03/27 02:54:08;;;;;;;6.38;3.08;;;;;;;;;;4190939;28;20040;-60
2023/03/27 02:56:33;;;;;;;8.80;3.05;;;;;;;;;;4193032;28;20055;-60
2023/03/27 02:58:56;;;;;;;12.45;3.97;;;;;;;;;;4191770;28;20059;-60
2023/03/27 03:01:18;;;;;;;10.50;3.30;;;;;;;;;;4189663;28;20047;-60
2023/03/27 03:03:52;;;;;;;5.15;3.55;;;;;;;;;;4191945;28;20036;-60
2023/03/27 03:06:13;;;;;;;9.52;3.92;;;;;;;;;;4192916;28;20079;-60
2023/03/27 03:08:37;;;;;;;13.82;2.90;;;;;;;;;;4186553;28;20043;-60
2023/03/27 03:11:04;;;;;;;22.55;3.88;;;;;;;;;;4191505;28;20056;-60
2023/03/27 03:13:25;;;;;;;6.63;2.90;;;;;;;;;;4188962;28;20126;-60
2023/03/27 03:15:45;;;;;;;4.07;3.53;;;;;;;;;;4189373;28;20044;-60
2023/03/27 03:18:06;;;;;;;8.82;2.88;;;;;;;;;;4187110;28;20047;-60
2023/03/27 03:20:28;;;;;;;6.53;4.00;;;;;;;;;;4189650;28;20052;-60
2023/03/27 03:22:48;;;;;;;3.08;2.25;;;;;;;;;;4189536;28;20104;-60
2023/03/27 03:25:11;;;;;;;4.00;3.22;;;;;;;;;;4188670;28;20072;-60
2023/03/27 03:27:33;;;;;;;7.13;4.18;;;;;;;;;;4188338;28;20086;-60
2023/03/27 03:29:55;;;;;;;6.57;3.20;;;;;;;;;;4189611;28;20040;-60
2023/03/27 03:32:15;;;;;;;4.93;3.50;;;;;;;;;;4190388;28;20079;-60
2023/03/27 03:34:35;;;;;;;11.20;3.78;;;;;;;;;;4188720;28;20076;-60
2023/03/27 03:36:56;;;;;;;14.23;4.05;;;;;;;;;;4193479;28;20079;-60
2023/03/27 03:39:17;;;;;;;4.20;2.72;;;;;;;;;;4192629;28;20225;-60
2023/03/27 03:41:37;;;;;;;4.70;3.47;;;;;;;;;;4193949;28;20052;-59
2023/03/27 03:43:57;;;;;;;8.18;3.90;;;;;;;;;;4191622;28;20075;-60
2023/03/27 03:46:17;;;;;;;6.82;3.47;;;;;;;;;;4192042;28;20267;-59
2023/03/27 03:48:38;;;;;;;7.85;4.40;;;;;;;;;;4194513;28;20074;-60
2023/03/27 03:50:58;;;;;;;4.60;4.20;;;;;;;;;;4195070;28;20082;-60
2023/03/27 03:53:20;;;;;;;6.30;2.97;;;;;;;;;;4192108;28;20367;-60
2023/03/27 03:55:40;;;;;;;9.90;4.03;;;;;;;;;;4193891;28;20047;-60
2023/03/27 03:58:01;;;;;;;5.68;2.63;;;;;;;;;;4195597;28;20048;-60
2023/03/27 04:00:21;;;;;;;11.13;3.17;;;;;;;;;;4195552;28;20060;-60
2023/03/27 04:02:42;;;;;;;6.63;3.80;;;;;;;;;;4192052;28;20044;-60
2023/03/27 04:05:04;;;;;;;6.47;3.47;;;;;;;;;;4194279;28;20117;-60
2023/03/27 04:07:30;;;;;;;10.93;3.08;;;;;;;;;;4195197;28;20105;-60
2023/03/27 04:09:51;;;;;;;6.93;3.38;;;;;;;;;;4192273;28;20048;-61
2023/03/27 04:12:11;;;;;;;3.13;2.90;;;;;;;;;;4191560;28;20062;-60
2023/03/27 04:14:32;;;;;;;5.50;2.65;;;;;;;;;;4194788;28;20043;-60
2023/03/27 04:16:52;;;;;;;10.00;3.20;;;;;;;;;;4191650;28;20055;-60
2023/03/27 04:19:12;;;;;;;7.55;3.83;;;;;;;;;;4191688;28;20072;-60
2023/03/27 04:21:32;;;;;;;6.22;3.05;;;;;;;;;;4192537;28;20047;-60
2023/03/27 04:23:52;;;;;;;12.63;3.80;;;;;;;;;;4192495;28;20100;-60
2023/03/27 04:26:14;;;;;;;8.82;2.75;;;;;;;;;;4192384;28;20048;-60
2023/03/27 04:28:34;;;;;;;5.80;3.20;;;;;;;;;;4191981;28;20043;-60
2023/03/27 04:30:54;;;;;;;6.15;3.08;;;;;;;;;;4192156;28;20412;-60
2023/03/27 04:33:18;;;;;;;13.07;4.00;;;;;;;;;;4192350;28;20387;-60
2023/03/27 04:35:39;;;;;;;8.65;3.13;;;;;;;;;;4192594;28;20393;-60
2023/03/27 04:38:01;;;;;;;8.07;3.00;;;;;;;;;;4191885;28;20051;-60
2023/03/27 04:40:24;;;;;;;7.95;3.45;;;;;;;;;;4191229;28;20294;-60
2023/03/27 04:42:44;;;;;;;7.57;2.88;;;;;;;;;;4190968;28;20047;-60
2023/03/27 04:45:04;;;;;;;10.70;3.05;;;;;;;;;;4191509;28;20385;-60
2023/03/27 04:47:24;;;;;;;4.97;3.00;;;;;;;;;;4189789;28;20044;-60
2023/03/27 04:49:49;;;;;;;4.90;3.15;;;;;;;;;;4191783;28;20043;-60
2023/03/27 04:52:12;;;;;;;6.50;2.70;;;;;;;;;;4191855;28;20044;-60
2023/03/27 04:54:33;;;;;;;6.28;4.32;;;;;;;;;;4191661;28;20087;-60
2023/03/27 04:56:53;;;;;;;7.85;2.90;;;;;;;;;;4191980;28;20052;-60
2023/03/27 04:59:14;;;;;;;8.27;3.78;;;;;;;;;;4191767;28;20054;-60
2023/03/27 05:01:35;;;;;;;4.95;2.17;;;;;;;;;;4191094;28;20048;-60
2023/03/27 05:03:55;;;;;;;5.95;2.85;;;;;;;;;;4192167;28;20039;-60
2023/03/27 05:06:15;;;;;;;4.97;2.55;;;;;;;;;;4191805;28;20275;-60
2023/03/27 05:08:36;;;;;;;7.45;2.70;;;;;;;;;;4190734;28;20239;-60
2023/03/27 05:10:56;;;;;;;9.98;3.40;;;;;;;;;;4191021;28;20079;-60
2023/03/27 05:13:16;;;;;;;3.95;2.60;;;;;;;;;;4192520;28;20061;-60
2023/03/27 05:15:37;;;;;;;4.55;2.72;;;;;;;;;;4191739;28;20048;-60
2023/03/27 05:17:57;;;;;;;10.60;3.33;;;;;;;;;;4192004;28;20109;-60
2023/03/27 05:20:18;;;;;;;8.07;2.05;;;;;;;;;;4191859;28;20129;-60
2023/03/27 05:22:38;;;;;;;11.77;3.53;;;;;;;;;;4193397;28;20079;-59
2023/03/27 05:24:59;;;;;;;5.38;2.90;;;;;;;;;;4191337;28;20079;-59
2023/03/27 05:27:19;;;;;;;10.02;5.95;;;;;;;;;;4192682;28;20060;-58
2023/03/27 05:29:39;;;;;;;6.30;3.10;;;;;;;;;;4192098;28;20036;-59
2023/03/27 05:32:07;;;;;;;9.38;3.08;;;;;;;;;;4191482;28;20083;-59
2023/03/27 05:34:27;;;;;;;8.02;2.95;;;;;;;;;;4192320;28;20056;-59
2023/03/27 05:36:48;;;;;;;11.23;4.15;;;;;;;;;;4191666;28;20200;-59
2023/03/27 05:39:08;;;;;;;9.05;3.58;;;;;;;;;;4192529;28;20056;-59
2023/03/27 05:41:28;;;;;;;6.55;4.40;;;;;;;;;;4189125;28;20090;-59
2023/03/27 05:43:49;;;;;;;9.18;4.50;;;;;;;;;;4192165;28;20118;-59
2023/03/27 05:46:11;;;;;;;10.10;4.80;;;;;;;;;;4190180;28;20043;-59
2023/03/27 05:48:31;;;;;;;10.90;4.55;;;;;;;;;;4191288;28;20128;-59
2023/03/27 05:50:51;;;;;;;5.90;3.42;;;;;;;;;;4190225;28;20338;-59
2023/03/27 05:53:11;;;;;;;8.73;4.32;;;;;;;;;;4192435;28;20052;-59
2023/03/27 05:55:31;;;;;;;19.98;5.35;;;;;;;;;;4190622;28;20487;-59
2023/03/27 05:57:52;;;;;;;11.95;5.32;;;;;;;;;;4191775;28;20051;-59
2023/03/27 06:00:13;;;;;;;20.50;6.95;;;;;;;;;;4189298;28;20048;-59
2023/03/27 06:02:33;;;;;;;23.02;13.35;;;;;;;;;;4190573;28;20105;-58
2023/03/27 06:04:53;;;;;;;18.70;9.38;;;;;;;;;;4189512;28;20071;-59
2023/03/27 06:07:14;;;;;;;14.13;9.27;;;;;;;;;;4189892;28;20271;-58
2023/03/27 06:09:35;;;;;;;16.90;9.75;;;;;;;;;;4190228;28;20039;-59
2023/03/27 06:11:56;;;;;;;12.63;7.85;;;;;;;;;;4190242;28;20084;-59
2023/03/27 06:14:16;;;;;;;27.83;11.80;;;;;;;;;;4190326;28;20043;-59
2023/03/27 06:16:36;;;;;;;18.65;10.75;;;;;;;;;;4190099;28;20087;-59
2023/03/27 06:18:57;;;;;;;23.25;10.57;;;;;;;;;;4190623;28;20047;-59
2023/03/27 06:21:18;;;;;;;20.60;12.00;;;;;;;;;;4190679;28;20252;-59
2023/03/27 06:23:38;;;;;;;12.40;8.25;;;;;;;;;;4190590;28;20051;-59
2023/03/27 06:25:58;;;;;;;13.88;7.75;;;;;;;;;;4188841;28;20052;-59
2023/03/27 06:28:19;;;;;;;14.82;6.57;;;;;;;;;;4191248;28;20048;-59
2023/03/27 06:30:40;;;;;;;12.30;5.65;;;;;;;;;;4192131;28;20116;-59
2023/03/27 06:33:01;;;;;;;9.75;4.18;;;;;;;;;;4191094;28;20109;-59
2023/03/27 06:35:22;;;;;;;9.73;5.07;;;;;;;;;;4190376;28;20075;-59
2023/03/27 06:37:45;;;;;;;11.23;5.10;;;;;;;;;;4190455;28;20052;-59
2023/03/27 06:40:09;;;;;;;5.75;4.07;;;;;;;;;;4190300;28;20056;-59
2023/03/27 06:42:29;;;;;;;8.38;4.25;;;;;;;;;;4191096;28;20085;-60
2023/03/27 06:44:49;;;;;;;8.48;4.60;;;;;;;;;;4189407;28;20244;-59
2023/03/27 06:47:09;;;;;;;7.05;3.88;;;;;;;;;;4190406;28;20051;-59
2023/03/27 06:49:29;;;;;;;10.85;5.00;;;;;;;;;;4190805;28;20082;-59
2023/03/27 06:51:50;;;;;;;7.88;4.32;;;;;;;;;;4192224;28;20047;-60
2023/03/27 06:54:12;;;;;;;10.90;5.90;;;;;;;;;;4187992;28;20036;-60
2023/03/27 06:56:32;;;;;;;12.55;4.93;;;;;;;;;;4190149;28;20316;-60
2023/03/27 06:58:52;;;;;;;11.63;3.90;;;;;;;;;;4191954;28;20055;-60
2023/03/27 07:01:13;;;;;;;9.73;4.28;;;;;;;;;;4192982;28;20087;-60
2023/03/27 07:03:33;;;;;;;10.25;4.18;;;;;;;;;;4189613;28;20060;-60
2023/03/27 07:05:54;;;;;;;9.35;3.47;;;;;;;;;;4191123;28;20076;-60
2023/03/27 07:08:15;;;;;;;8.93;3.35;;;;;;;;;;4192186;28;20047;-60
2023/03/27 07:10:39;;;;;;;7.30;2.70;;;;;;;;;;4191179;28;20122;-60
2023/03/27 07:12:59;;;;;;;6.75;5.25;;;;;;;;;;4190160;28;20056;-60
2023/03/27 07:15:20;;;;;;;12.00;4.55;;;;;;;;;;4194665;28;20385;-60
2023/03/27 07:17:42;;;;;;;9.10;4.22;;;;;;;;;;4195930;28;20104;-60
2023/03/27 07:20:10;;;;;;;5.78;4.60;;;;;;;;;;4191618;28;20105;-60
2023/03/27 07:22:30;;;;;;;4.00;3.58;;;;;;;;;;4192110;28;20047;-60
2023/03/27 07:24:50;;;;;;;14.85;5.72;;;;;;;;;;4195306;28;20124;-60
2023/03/27 07:27:11;;;;;;;13.48;4.82;;;;;;;;;;4192918;28;20051;-60
2023/03/27 07:29:31;;;;;;;11.05;3.55;;;;;;;;;;4191801;28;20044;-60
2023/03/27 07:31:51;;;;;;;5.10;2.47;;;;;;;;;;4191969;28;20074;-60
2023/03/27 07:34:19;;;;;;;6.07;2.63;;;;;;;;;;4190938;28;20059;-60
2023/03/27 07:36:39;;;;;;;8.98;4.43;;;;;;;;;;4192231;28;20048;-60
2023/03/27 07:39:00;;;;;;;6.25;2.55;;;;;;;;;;4190878;28;20074;-60
2023/03/27 07:41:21;;;;;;;5.80;2.60;;;;;;;;;;4191496;28;20051;-60
2023/03/27 07:43:41;;;;;;;3.63;2.03;;;;;;;;;;4191834;28;20407;-60
2023/03/27 07:46:02;;;;;;;8.10;2.65;;;;;;;;;;4192766;28;20048;-60
2023/03/27 07:48:22;;;;;;;7.57;1.88;;;;;;;;;;4191529;28;20420;-60
2023/03/27 07:50:43;;;;;;;3.67;2.47;;;;;;;;;;4197921;28;20048;-60
2023/03/27 07:53:07;;;;;;;6.10;2.28;;;;;;;;;;4192531;28;20098;-60
2023/03/27 07:55:28;;;;;;;2.58;1.75;;;;;;;;;;4192449;28;20067;-59
2023/03/27 07:57:48;;;;;;;8.77;1.70;;;;;;;;;;4192124;28;20060;-59
2023/03/27 08:00:24;;;;;;;5.47;1.90;;;;;;;;;;4193687;28;20098;-59
2023/03/27 08:02:45;;;;;;;2.22;2.03;;;;;;;;;;4194193;28;20086;-60
2023/03/27 08:05:07;;;;;;;5.18;2.00;;;;;;;;;;4191355;28;20043;-60
2023/03/27 08:07:29;;;;;;;3.78;1.98;;;;;;;;;;4193597;28;20087;-60
2023/03/27 08:09:49;;;;;;;3.03;1.58;;;;;;;;;;4195009;28;20083;-60
2023/03/27 08:12:09;;;;;;;5.55;1.92;;;;;;;;;;4193590;28;20236;-60
2023/03/27 08:14:29;;;;;;;1.40;1.30;;;;;;;;;;4191690;28;20048;-60
2023/03/27 08:16:50;;;;;;;1.70;1.60;;;;;;;;;;4192942;28;20147;-60
2023/03/27 08:19:10;;;;;;;1.65;1.55;;;;;;;;;;4193105;28;20362;-59
2023/03/27 08:21:32;;;;;;;1.95;1.45;;;;;;;;;;4190971;28;20052;-60
2023/03/27 08:23:54;;;;;;;1.58;1.48;;;;;;;;;;4192109;28;20048;-59
2023/03/27 08:26:16;;;;;;;2.50;1.55;;;;;;;;;;4193306;28;20366;-59
2023/03/27 08:28:37;;;;;;;1.40;1.30;;;;;;;;;;4193132;28;20295;-60
2023/03/27 08:30:59;;;;;;;1.63;1.52;;;;;;;;;;4190904;28;20052;-59
2023/03/27 08:33:23;;;;;;;1.73;1.63;;;;;;;;;;4191578;28;20056;-59
2023/03/27 08:35:46;;;;;;;1.35;1.35;;;;;;;;;;4191923;28;20047;-60
2023/03/27 08:38:07;;;;;;;3.90;1.52;;;;;;;;;;4194442;28;20056;-60
2023/03/27 08:40:47;;;;;;;1.38;1.25;;;;;;;;;;4190046;28;20362;-59
2023/03/27 08:43:13;;;;;;;1.75;1.75;;;;;;;;;;4190772;28;20060;-59
2023/03/27 08:45:36;;;;;;;1.20;1.20;;;;;;;;;;4193809;28;20070;-59
2023/03/27 08:48:00;;;;;;;1.33;1.30;;;;;;;;;;4193763;28;20402;-59
2023/03/27 08:50:32;;;;;;;1.85;1.20;;;;;;;;;;4192085;28;20275;-59
2023/03/27 08:52:52;;;;;;;1.40;1.30;;;;;;;;;;4193247;28;20300;-60
2023/03/27 08:55:18;;;;;;;1.27;1.17;;;;;;;;;;4191804;28;20039;-60
2023/03/27 08:57:38;;;;;;;1.10;1.10;;;;;;;;;;4189456;28;20106;-59
2023/03/27 08:59:59;;;;;;;1.20;1.20;;;;;;;;;;4191082;28;20106;-59
2023/03/27 09:02:36;;;;;;;1.10;1.10;;;;;;;;;;4190533;28;20048;-60
2023/03/27 09:05:05;;;;;;;1.85;1.50;;;;;;;;;;4190974;28;20051;-60
2023/03/27 09:07:41;;;;;;;1.20;1.20;;;;;;;;;;4188681;28;20097;-59
2023/03/27 09:10:16;;;;;;;1.30;1.30;;;;;;;;;;4191032;28;20293;-59
2023/03/27 09:12:49;;;;;;;2.38;1.75;;;;;;;;;;4191217;28;20113;-59
2023/03/27 09:15:11;;;;;;;1.23;1.23;;;;;;;;;;4190125;28;20462;-60
2023/03/27 09:17:36;;;;;;;1.20;1.20;;;;;;;;;;4191391;28;20051;-60
2023/03/27 09:19:59;;;;;;;1.33;1.33;;;;;;;;;;4195492;28;20342;-59
2023/03/27 09:22:25;;;;;;;1.23;1.23;;;;;;;;;;4192196;28;20052;-60
2023/03/27 09:24:50;;;;;;;1.50;1.05;;;;;;;;;;4191929;28;20048;-60
2023/03/27 09:27:28;;;;;;;1.10;1.10;;;;;;;;;;4190604;28;20047;-59
2023/03/27 09:30:07;;;;;;;1.00;1.00;;;;;;;;;;4192522;28;20083;-59
2023/03/27 09:32:27;;;;;;;1.33;1.23;;;;;;;;;;4189235;28;20044;-60
2023/03/27 09:34:54;;;;;;;1.70;1.70;;;;;;;;;;4193079;28;20040;-59
2023/03/27 09:37:16;;;;;;;1.98;1.80;;;;;;;;;;4192043;28;20115;-60
2023/03/27 09:39:37;;;;;;;;;;;;;;;;;;4194184;28;20111;-59
2023/03/27 09:41:59;;;;;;;1.25;1.25;;;;;;;;;;4190766;28;19924;-59
2023/03/27 09:44:24;;;;;;;1.88;1.33;;;;;;;;;;4190369;28;20084;-59
2023/03/27 09:46:45;;;;;;;1.55;1.45;;;;;;;;;;4191869;28;20682;-59
2023/03/27 09:49:12;;;;;;;4.65;1.33;;;;;;;;;;4190904;28;20091;-60
2023/03/27 09:51:50;;;;;;;1.52;1.20;;;;;;;;;;4189627;28;20047;-60
2023/03/27 09:54:13;;;;;;;1.10;1.10;;;;;;;;;;4190647;28;20287;-59
2023/03/27 09:56:54;;;;;;;1.55;1.55;;;;;;;;;;4191947;28;20071;-59
2023/03/27 09:59:20;;;;;;;1.05;1.05;;;;;;;;;;4189749;28;20091;-59
2023/03/27 10:01:45;;;;;;;1.10;1.10;;;;;;;;;;4193879;28;20051;-60
2023/03/27 10:04:11;;;;;;;1.27;1.10;;;;;;;;;;4200174;28;20062;-60
2023/03/27 10:06:42;;;;;;;1.30;1.30;;;;;;;;;;4189691;28;20058;-59
2023/03/27 10:09:11;;;;;;;1.05;1.05;;;;;;;;;;4191947;28;20101;-59
2023/03/27 10:11:34;;;;;;;1.92;1.10;;;;;;;;;;4191864;28;20104;-60
2023/03/27 10:13:54;;;;;;;1.17;1.10;;;;;;;;;;4191047;28;20055;-60
2023/03/27 10:16:18;;;;;;;1.45;1.42;;;;;;;;;;4190828;28;20064;-60
2023/03/27 10:18:42;;;;;;;1.20;1.20;;;;;;;;;;4192080;28;20111;-60
2023/03/27 10:21:08;;;;;;;1.00;1.00;;;;;;;;;;4188181;28;20083;-60
2023/03/27 10:23:40;;;;;;;2.13;2.03;;;;;;;;;;4187830;28;20036;-60
2023/03/27 10:26:01;;;;;;;1.00;1.00;;;;;;;;;;4189517;28;20052;-60
2023/03/27 10:28:29;;;;;;;1.10;1.10;;;;;;;;;;4189838;28;20048;-60
2023/03/27 10:31:00;;;;;;;1.00;1.00;;;;;;;;;;4190347;28;20055;-60
2023/03/27 10:33:31;;;;;;;1.38;1.35;;;;;;;;;;4190022;28;20056;-60
2023/03/27 10:35:51;;;;;;;0.93;0.90;;;;;;;;;;4189891;28;20079;-60
2023/03/27 10:38:13;;;;;;;1.17;1.10;;;;;;;;;;4189796;28;20051;-60
2023/03/27 10:40:35;;;;;;;1.10;1.10;;;;;;;;;;4191286;28;20044;-60
2023/03/27 10:42:56;;;;;;;1.00;1.00;;;;;;;;;;4190079;28;20302;-60
2023/03/27 10:45:19;;;;;;;0.90;0.90;;;;;;;;;;4194184;28;20076;-60
2023/03/27 10:47:45;;;;;;;1.10;1.00;;;;;;;;;;4191284;28;20060;-60
2023/03/27 10:50:06;;;;;;;0.90;0.90;;;;;;;;;;4190626;28;20047;-60
2023/03/27 10:52:33;;;;;;;1.10;1.10;;;;;;;;;;4190758;28;20080;-61
2023/03/27 10:55:13;;;;;;;1.00;1.00;;;;;;;;;;4192345;28;20056;-60
2023/03/27 10:57:33;;;;;;;1.27;1.23;;;;;;;;;;4189403;28;20127;-60
2023/03/27 11:00:17;;;;;;;1.00;1.00;;;;;;;;;;4190222;28;20052;-60
2023/03/27 11:02:42;;;;;;;1.10;1.10;;;;;;;;;;4192781;28;20060;-60
2023/03/27 11:05:05;;;;;;;1.38;1.27;;;;;;;;;;4189457;28;20051;-60
2023/03/27 11:07:32;;;;;;;1.05;1.00;;;;;;;;;;4189301;28;20068;-60
2023/03/27 11:09:56;;;;;;;0.93;0.90;;;;;;;;;;4191103;28;20055;-60
2023/03/27 11:12:17;;;;;;;1.13;1.10;;;;;;;;;;4193310;28;20118;-60
2023/03/27 11:14:50;;;;;;;1.10;1.10;;;;;;;;;;4190975;28;20087;-60
2023/03/27 11:17:10;;;;;;;;;;;;;;;;;;4190352;28;20083;-60
2023/03/27 11:19:46;;;;;;;2.05;1.10;;;;;;;;;;4192340;28;19937;-60
2023/03/27 11:22:13;;;;;;;1.20;1.20;;;;;;;;;;4191566;28;20060;-60
2023/03/27 11:24:37;;;;;;;1.00;1.00;;;;;;;;;;4188838;28;20048;-60
2023/03/27 11:27:03;;;;;;;1.50;1.42;;;;;;;;;;4179125;28;20045;-60
2023/03/27 11:29:28;;;;;;;1.08;1.08;;;;;;;;;;4191043;28;20039;-60
2023/03/27 11:31:50;;;;;;;1.10;1.10;;;;;;;;;;4191264;28;20043;-60
2023/03/27 11:34:31;;;;;;;1.02;1.02;;;;;;;;;;4187994;28;20047;-60
2023/03/27 11:36:54;;;;;;;1.25;1.00;;;;;;;;;;4190128;28;20078;-60
2023/03/27 11:39:14;;;;;;;;;;;;;;;;;;4191771;28;20147;-60
2023/03/27 11:41:35;;;;;;;1.10;0.98;;;;;;;;;;4191137;28;19923;-59
2023/03/27 11:43:55;;;;;;;1.77;1.00;;;;;;;;;;4190409;28;20048;-59
2023/03/27 11:46:22;;;;;;;1.00;1.00;;;;;;;;;;4189373;28;20064;-59
2023/03/27 11:48:46;;;;;;;1.00;1.00;;;;;;;;;;4187767;28;20225;-59
2023/03/27 11:51:19;;;;;;;0.98;0.98;;;;;;;;;;4186983;28;20048;-59
2023/03/27 11:53:40;;;;;;;1.00;1.00;;;;;;;;;;4188035;28;20366;-59
2023/03/27 11:56:00;;;;;;;1.48;0.95;;;;;;;;;;4188267;28;20067;-59
2023/03/27 11:58:22;;;;;;;0.90;0.90;;;;;;;;;;4192525;28;20048;-59
2023/03/27 12:00:48;;;;;;;1.27;1.17;;;;;;;;;;4191130;28;20382;-58
2023/03/27 12:03:08;;;;;;;0.90;0.90;;;;;;;;;;4193231;28;20067;-58
2023/03/27 12:05:47;;;;;;;0.90;0.90;;;;;;;;;;4193269;28;20040;-59
2023/03/27 12:08:28;;;;;;;1.00;1.00;;;;;;;;;;4190051;28;20079;-58
2023/03/27 12:10:49;;;;;;;1.65;1.20;;;;;;;;;;4193057;28;20397;-59
2023/03/27 12:13:22;;;;;;;2.15;1.45;;;;;;;;;;4193605;28;20079;-59
2023/03/27 12:16:14;;;;;;;1.10;1.10;;;;;;;;;;4192272;28;20083;-59
2023/03/27 12:18:44;;;;;;;1.45;1.10;;;;;;;;;;4191409;28;20044;-59
2023/03/27 12:21:28;;;;;;;1.30;1.10;;;;;;;;;;4194296;28;20059;-59
2023/03/27 12:23:57;;;;;;;2.55;1.00;;;;;;;;;;4192704;28;20040;-59
2023/03/27 12:26:21;;;;;;;1.20;1.10;;;;;;;;;;4191029;28;20059;-59
2023/03/27 12:29:00;;;;;;;2.65;1.08;;;;;;;;;;4192447;28;20056;-59
2023/03/27 12:31:30;;;;;;;1.20;1.10;;;;;;;;;;4191238;28;20072;-59
2023/03/27 12:34:11;;;;;;;2.40;1.30;;;;;;;;;;4194910;28;20123;-59
2023/03/27 12:36:34;;;;;;;1.50;1.40;;;;;;;;;;4191775;28;20044;-59
2023/03/27 12:38:55;;;;;;;3.42;1.20;;;;;;;;;;4192080;28;20083;-59
2023/03/27 12:41:21;;;;;;;1.77;1.20;;;;;;;;;;4194044;28;20143;-59
2023/03/27 12:43:46;;;;;;;2.45;2.28;;;;;;;;;;4190640;28;20277;-58
2023/03/27 12:46:30;;;;;;;4.32;1.17;;;;;;;;;;4191119;28;20071;-60
2023/03/27 12:48:54;;;;;;;1.42;1.33;;;;;;;;;;4194755;28;20231;-60
2023/03/27 12:51:18;;;;;;;1.58;1.45;;;;;;;;;;4195874;28;20456;-60
2023/03/27 12:53:38;;;;;;;1.33;1.20;;;;;;;;;;4190322;28;20083;-60
2023/03/27 12:56:18;;;;;;;1.73;1.63;;;;;;;;;;4192692;28;20079;-60
2023/03/27 12:58:39;;;;;;;1.90;1.30;;;;;;;;;;4194233;28;20064;-60
2023/03/27 13:01:00;;;;;;;1.95;1.60;;;;;;;;;;4192153;28;20044;-60
2023/03/27 13:03:39;;;;;;;1.38;1.27;;;;;;;;;;4189265;28;20086;-60
2023/03/27 13:05:59;;;;;;;1.77;1.33;;;;;;;;;;4193696;28;20047;-60
2023/03/27 13:08:44;;;;;;;1.67;1.45;;;;;;;;;;4192047;28;20051;-60
2023/03/27 13:11:16;;;;;;;1.20;1.20;;;;;;;;;;4191582;28;20040;-60
2023/03/27 13:13:55;;;;;;;1.58;1.48;;;;;;;;;;4189594;28;20048;-60
2023/03/27 13:16:34;;;;;;;1.50;1.50;;;;;;;;;;4190803;28;20044;-60
2023/03/27 13:19:18;;;;;;;1.40;1.40;;;;;;;;;;4191666;28;20378;-60
2023/03/27 13:21:57;;;;;;;1.20;1.20;;;;;;;;;;4190861;28;20052;-60
2023/03/27 13:24:36;;;;;;;1.25;1.15;;;;;;;;;;4191503;28;20058;-60
2023/03/27 13:26:57;;;;;;;1.05;1.02;;;;;;;;;;4191357;28;20090;-60
2023/03/27 13:29:21;;;;;;;1.30;1.20;;;;;;;;;;4191698;28;20086;-60
2023/03/27 13:31:45;;;;;;;3.55;1.40;;;;;;;;;;4189580;28;20075;-60
2023/03/27 13:34:11;;;;;;;1.60;1.50;;;;;;;;;;4191662;28;20040;-60
2023/03/27 13:36:32;;;;;;;2.08;1.40;;;;;;;;;;4191120;28;20063;-60
2023/03/27 13:38:52;;;;;;;2.53;2.05;;;;;;;;;;4190439;28;20410;-60
2023/03/27 13:41:31;;;;;;;2.30;1.25;;;;;;;;;;4192958;28;20109;-60
2023/03/27 13:43:52;;;;;;;1.08;1.08;;;;;;;;;;4191705;28;20055;-60
2023/03/27 13:46:17;;;;;;;1.73;1.30;;;;;;;;;;4190794;28;20048;-60
2023/03/27 13:48:47;;;;;;;2.25;1.77;;;;;;;;;;4190299;28;20052;-60
2023/03/27 13:51:08;;;;;;;1.30;1.20;;;;;;;;;;4192773;28;20055;-60
2023/03/27 13:53:40;;;;;;;1.83;1.05;;;;;;;;;;4189071;28;20106;-60
2023/03/27 13:56:09;;;;;;;1.45;1.35;;;;;;;;;;4189966;28;20443;-60
2023/03/27 13:58:32;;;;;;;1.20;1.20;;;;;;;;;;4191026;28;20075;-60
2023/03/27 14:01:08;;;;;;;1.23;1.20;;;;;;;;;;4191594;28;20048;-60
2023/03/27 14:03:52;;;;;;;1.30;1.30;;;;;;;;;;4191095;28;20232;-60
2023/03/27 14:06:24;;;;;;;1.55;1.45;;;;;;;;;;4191984;28;20095;-60
2023/03/27 14:08:50;;;;;;;2.58;1.20;;;;;;;;;;4192525;28;20051;-60
2023/03/27 14:11:20;;;;;;;1.77;1.67;;;;;;;;;;4190619;28;20036;-60
2023/03/27 14:13:48;;;;;;;1.65;1.63;;;;;;;;;;4192687;28;20052;-60
2023/03/27 14:16:27;;;;;;;1.05;1.05;;;;;;;;;;4189781;28;20390;-59
2023/03/27 14:18:54;;;;;;;1.30;1.20;;;;;;;;;;4190630;28;20232;-59
2023/03/27 14:21:15;;;;;;;1.48;1.40;;;;;;;;;;4191585;28;20091;-59
2023/03/27 14:23:51;;;;;;;1.20;1.20;;;;;;;;;;4191971;28;20358;-59
2023/03/27 14:26:23;;;;;;;1.10;1.10;;;;;;;;;;4191942;28;20087;-59
2023/03/27 14:28:50;;;;;;;4.47;4.28;;;;;;;;;;4190422;28;20287;-59